sensor_id;sensor_type;location;lat;lon;timestamp;P1;durP1;ratioP1;P2;durP2;ratioP2
32216;SDS011;67098;51.140;4.088;2023-02-28T00:00:06;13.00;;;6.20;;
32216;SDS011;67098;51.140;4.088;2023-02-28T00:02:37;14.00;;;6.80;;
32216;SDS011;67098;51.140;4.088;2023-02-28T00:05:04;19.70;;;7.68;;
32216;SDS011;67098;51.140;4.088;2023-02-28T00:07:31;18.63;;;7.15;;
32216;SDS011;67098;51.140;4.088;2023-02-28T00:09:57;17.13;;;6.65;;
32216;SDS011;67098;51.140;4.088;2023-02-28T00:12:23;15.98;;;6.60;;
32216;SDS011;67098;51.140;4.088;2023-02-28T00:14:49;13.05;;;6.38;;
32216;SDS011;67098;51.140;4.088;2023-02-28T00:17:15;18.83;;;7.18;;
32216;SDS011;67098;51.140;4.088;2023-02-28T00:19:42;13.65;;;6.50;;
32216;SDS011;67098;51.140;4.088;2023-02-28T00:22:08;18.23;;;7.13;;
32216;SDS011;67098;51.140;4.088;2023-02-28T00:24:34;14.70;;;6.90;;
32216;SDS011;67098;51.140;4.088;2023-02-28T00:26:59;16.63;;;7.07;;
32216;SDS011;67098;51.140;4.088;2023-02-28T00:29:25;22.88;;;6.97;;
32216;SDS011;67098;51.140;4.088;2023-02-28T00:31:51;13.52;;;6.72;;
32216;SDS011;67098;51.140;4.088;2023-02-28T00:34:16;15.30;;;7.40;;
32216;SDS011;67098;51.140;4.088;2023-02-28T00:36:42;14.60;;;7.43;;
32216;SDS011;67098;51.140;4.088;2023-02-28T00:39:10;23.33;;;7.93;;
32216;SDS011;67098;51.140;4.088;2023-02-28T00:41:36;17.92;;;7.88;;
32216;SDS011;67098;51.140;4.088;2023-02-28T00:44:02;16.92;;;8.50;;
32216;SDS011;67098;51.140;4.088;2023-02-28T00:46:28;20.02;;;8.70;;
32216;SDS011;67098;51.140;4.088;2023-02-28T00:48:53;22.05;;;9.35;;
32216;SDS011;67098;51.140;4.088;2023-02-28T00:51:19;25.30;;;9.82;;
32216;SDS011;67098;51.140;4.088;2023-02-28T00:53:44;26.70;;;10.38;;
32216;SDS011;67098;51.140;4.088;2023-02-28T00:56:10;21.60;;;10.35;;
32216;SDS011;67098;51.140;4.088;2023-02-28T00:58:36;24.42;;;9.70;;
32216;SDS011;67098;51.140;4.088;2023-02-28T01:01:01;23.63;;;10.50;;
32216;SDS011;67098;51.140;4.088;2023-02-28T01:03:27;27.35;;;10.75;;
32216;SDS011;67098;51.140;4.088;2023-02-28T01:05:52;21.23;;;10.23;;
32216;SDS011;67098;51.140;4.088;2023-02-28T01:08:18;22.55;;;9.90;;
32216;SDS011;67098;51.140;4.088;2023-02-28T01:10:44;20.55;;;9.35;;
32216;SDS011;67098;51.140;4.088;2023-02-28T01:13:10;22.40;;;9.60;;
32216;SDS011;67098;51.140;4.088;2023-02-28T01:15:37;20.38;;;9.00;;
32216;SDS011;67098;51.140;4.088;2023-02-28T01:18:05;20.20;;;8.93;;
32216;SDS011;67098;51.140;4.088;2023-02-28T01:20:31;20.52;;;9.57;;
32216;SDS011;67098;51.140;4.088;2023-02-28T01:22:57;20.63;;;9.10;;
32216;SDS011;67098;51.140;4.088;2023-02-28T01:25:22;17.40;;;8.20;;
32216;SDS011;67098;51.140;4.088;2023-02-28T01:27:48;23.30;;;8.98;;
32216;SDS011;67098;51.140;4.088;2023-02-28T01:30:13;18.83;;;8.32;;
32216;SDS011;67098;51.140;4.088;2023-02-28T01:32:39;14.57;;;7.90;;
32216;SDS011;67098;51.140;4.088;2023-02-28T01:35:05;18.58;;;7.95;;
32216;SDS011;67098;51.140;4.088;2023-02-28T01:37:31;18.15;;;7.75;;
32216;SDS011;67098;51.140;4.088;2023-02-28T01:39:56;20.05;;;7.85;;
32216;SDS011;67098;51.140;4.088;2023-02-28T01:42:22;19.95;;;8.18;;
32216;SDS011;67098;51.140;4.088;2023-02-28T01:47:52;15.20;;;7.90;;
32216;SDS011;67098;51.140;4.088;2023-02-28T01:50:23;16.25;;;8.10;;
32216;SDS011;67098;51.140;4.088;2023-02-28T01:52:51;16.40;;;8.23;;
32216;SDS011;67098;51.140;4.088;2023-02-28T01:55:22;19.60;;;8.20;;
32216;SDS011;67098;51.140;4.088;2023-02-28T01:57:54;22.48;;;8.43;;
32216;SDS011;67098;51.140;4.088;2023-02-28T02:00:24;13.68;;;7.35;;
32216;SDS011;67098;51.140;4.088;2023-02-28T02:02:53;19.92;;;7.38;;
32216;SDS011;67098;51.140;4.088;2023-02-28T02:05:22;13.55;;;7.47;;
32216;SDS011;67098;51.140;4.088;2023-02-28T02:07:51;17.80;;;7.45;;
32216;SDS011;67098;51.140;4.088;2023-02-28T02:10:21;19.55;;;8.15;;
32216;SDS011;67098;51.140;4.088;2023-02-28T02:24:42;13.85;;;7.47;;
32216;SDS011;67098;51.140;4.088;2023-02-28T02:35:15;18.15;;;7.05;;
32216;SDS011;67098;51.140;4.088;2023-02-28T02:37:54;15.07;;;7.50;;
32216;SDS011;67098;51.140;4.088;2023-02-28T02:40:36;15.80;;;8.40;;
32216;SDS011;67098;51.140;4.088;2023-02-28T02:43:29;15.52;;;7.53;;
32216;SDS011;67098;51.140;4.088;2023-02-28T02:46:11;17.98;;;7.45;;
32216;SDS011;67098;51.140;4.088;2023-02-28T02:48:50;17.25;;;7.88;;
32216;SDS011;67098;51.140;4.088;2023-02-28T02:51:21;15.38;;;7.45;;
32216;SDS011;67098;51.140;4.088;2023-02-28T02:53:53;12.95;;;6.90;;
32216;SDS011;67098;51.140;4.088;2023-02-28T02:56:26;14.68;;;6.63;;
32216;SDS011;67098;51.140;4.088;2023-02-28T02:58:56;18.63;;;7.80;;
32216;SDS011;67098;51.140;4.088;2023-02-28T03:01:27;15.85;;;7.30;;
32216;SDS011;67098;51.140;4.088;2023-02-28T03:03:59;14.65;;;7.35;;
32216;SDS011;67098;51.140;4.088;2023-02-28T03:06:28;16.58;;;6.70;;
32216;SDS011;67098;51.140;4.088;2023-02-28T03:08:53;11.63;;;6.80;;
32216;SDS011;67098;51.140;4.088;2023-02-28T03:11:19;14.23;;;6.40;;
32216;SDS011;67098;51.140;4.088;2023-02-28T03:26:57;11.50;;;6.72;;
32216;SDS011;67098;51.140;4.088;2023-02-28T03:29:33;16.50;;;7.05;;
32216;SDS011;67098;51.140;4.088;2023-02-28T03:32:04;13.85;;;6.72;;
32216;SDS011;67098;51.140;4.088;2023-02-28T03:34:53;12.80;;;6.53;;
32216;SDS011;67098;51.140;4.088;2023-02-28T03:37:28;16.92;;;7.38;;
32216;SDS011;67098;51.140;4.088;2023-02-28T03:39:58;12.73;;;6.75;;
32216;SDS011;67098;51.140;4.088;2023-02-28T03:45:15;13.65;;;7.07;;
32216;SDS011;67098;51.140;4.088;2023-02-28T03:48:30;15.50;;;7.07;;
32216;SDS011;67098;51.140;4.088;2023-02-28T03:50:38;13.13;;;7.55;;
32216;SDS011;67098;51.140;4.088;2023-02-28T03:53:13;13.73;;;7.43;;
32216;SDS011;67098;51.140;4.088;2023-02-28T03:55:43;16.50;;;7.80;;
32216;SDS011;67098;51.140;4.088;2023-02-28T04:00:47;17.95;;;8.70;;
32216;SDS011;67098;51.140;4.088;2023-02-28T04:03:17;13.73;;;7.28;;
32216;SDS011;67098;51.140;4.088;2023-02-28T04:05:48;13.32;;;6.97;;
32216;SDS011;67098;51.140;4.088;2023-02-28T04:08:17;16.40;;;7.22;;
32216;SDS011;67098;51.140;4.088;2023-02-28T04:10:43;14.55;;;7.22;;
32216;SDS011;67098;51.140;4.088;2023-02-28T04:13:12;14.07;;;7.60;;
32216;SDS011;67098;51.140;4.088;2023-02-28T04:15:37;14.85;;;7.47;;
32216;SDS011;67098;51.140;4.088;2023-02-28T04:18:03;15.05;;;7.82;;
32216;SDS011;67098;51.140;4.088;2023-02-28T04:20:29;14.98;;;7.50;;
32216;SDS011;67098;51.140;4.088;2023-02-28T04:22:54;13.48;;;7.47;;
32216;SDS011;67098;51.140;4.088;2023-02-28T04:25:20;13.00;;;7.13;;
32216;SDS011;67098;51.140;4.088;2023-02-28T04:27:46;18.13;;;8.77;;
32216;SDS011;67098;51.140;4.088;2023-02-28T04:30:11;14.23;;;7.78;;
32216;SDS011;67098;51.140;4.088;2023-02-28T04:32:37;15.30;;;8.43;;
32216;SDS011;67098;51.140;4.088;2023-02-28T04:35:03;14.70;;;7.13;;
32216;SDS011;67098;51.140;4.088;2023-02-28T04:37:29;12.32;;;7.38;;
32216;SDS011;67098;51.140;4.088;2023-02-28T04:39:55;17.10;;;7.70;;
32216;SDS011;67098;51.140;4.088;2023-02-28T04:42:20;16.05;;;7.78;;
32216;SDS011;67098;51.140;4.088;2023-02-28T04:44:46;16.20;;;7.85;;
32216;SDS011;67098;51.140;4.088;2023-02-28T04:47:12;16.42;;;8.30;;
32216;SDS011;67098;51.140;4.088;2023-02-28T04:49:38;14.93;;;7.80;;
32216;SDS011;67098;51.140;4.088;2023-02-28T04:52:03;15.02;;;7.95;;
32216;SDS011;67098;51.140;4.088;2023-02-28T04:54:29;13.15;;;7.65;;
32216;SDS011;67098;51.140;4.088;2023-02-28T04:56:55;14.43;;;8.02;;
32216;SDS011;67098;51.140;4.088;2023-02-28T04:59:21;14.50;;;7.57;;
32216;SDS011;67098;51.140;4.088;2023-02-28T05:01:47;19.13;;;8.35;;
32216;SDS011;67098;51.140;4.088;2023-02-28T05:04:13;13.38;;;7.88;;
32216;SDS011;67098;51.140;4.088;2023-02-28T05:06:39;16.95;;;8.20;;
32216;SDS011;67098;51.140;4.088;2023-02-28T05:09:05;15.20;;;8.02;;
32216;SDS011;67098;51.140;4.088;2023-02-28T05:11:32;20.00;;;8.02;;
32216;SDS011;67098;51.140;4.088;2023-02-28T05:14:08;15.90;;;8.35;;
32216;SDS011;67098;51.140;4.088;2023-02-28T05:16:38;14.25;;;8.25;;
32216;SDS011;67098;51.140;4.088;2023-02-28T05:19:04;19.70;;;8.38;;
32216;SDS011;67098;51.140;4.088;2023-02-28T05:21:33;16.23;;;8.40;;
32216;SDS011;67098;51.140;4.088;2023-02-28T05:26:28;14.75;;;7.93;;
32216;SDS011;67098;51.140;4.088;2023-02-28T05:28:54;16.23;;;7.57;;
32216;SDS011;67098;51.140;4.088;2023-02-28T05:31:20;16.02;;;7.50;;
32216;SDS011;67098;51.140;4.088;2023-02-28T05:33:46;15.98;;;8.30;;
32216;SDS011;67098;51.140;4.088;2023-02-28T05:36:12;16.38;;;7.85;;
32216;SDS011;67098;51.140;4.088;2023-02-28T05:38:37;14.95;;;7.97;;
32216;SDS011;67098;51.140;4.088;2023-02-28T05:41:09;15.15;;;8.07;;
32216;SDS011;67098;51.140;4.088;2023-02-28T05:43:36;16.70;;;8.82;;
32216;SDS011;67098;51.140;4.088;2023-02-28T05:46:06;19.58;;;8.32;;
32216;SDS011;67098;51.140;4.088;2023-02-28T05:51:00;19.83;;;8.25;;
32216;SDS011;67098;51.140;4.088;2023-02-28T05:53:27;16.90;;;8.20;;
32216;SDS011;67098;51.140;4.088;2023-02-28T05:55:53;13.88;;;7.55;;
32216;SDS011;67098;51.140;4.088;2023-02-28T05:58:19;15.95;;;8.10;;
32216;SDS011;67098;51.140;4.088;2023-02-28T06:00:45;15.85;;;7.63;;
32216;SDS011;67098;51.140;4.088;2023-02-28T06:03:11;14.20;;;7.07;;
32216;SDS011;67098;51.140;4.088;2023-02-28T06:05:36;15.00;;;7.70;;
32216;SDS011;67098;51.140;4.088;2023-02-28T06:08:03;15.43;;;7.38;;
32216;SDS011;67098;51.140;4.088;2023-02-28T06:10:30;17.50;;;7.43;;
32216;SDS011;67098;51.140;4.088;2023-02-28T06:12:59;17.23;;;7.40;;
32216;SDS011;67098;51.140;4.088;2023-02-28T06:15:25;19.38;;;7.75;;
32216;SDS011;67098;51.140;4.088;2023-02-28T06:17:52;21.05;;;7.70;;
32216;SDS011;67098;51.140;4.088;2023-02-28T06:20:17;13.95;;;7.32;;
32216;SDS011;67098;51.140;4.088;2023-02-28T06:22:43;13.25;;;7.40;;
32216;SDS011;67098;51.140;4.088;2023-02-28T06:25:09;16.65;;;8.02;;
32216;SDS011;67098;51.140;4.088;2023-02-28T06:27:35;13.63;;;7.00;;
32216;SDS011;67098;51.140;4.088;2023-02-28T06:30:02;16.02;;;7.80;;
32216;SDS011;67098;51.140;4.088;2023-02-28T06:32:28;16.17;;;8.02;;
32216;SDS011;67098;51.140;4.088;2023-02-28T06:34:54;15.82;;;7.75;;
32216;SDS011;67098;51.140;4.088;2023-02-28T06:37:22;23.38;;;8.40;;
32216;SDS011;67098;51.140;4.088;2023-02-28T06:39:51;16.27;;;8.45;;
32216;SDS011;67098;51.140;4.088;2023-02-28T06:42:16;15.82;;;8.32;;
32216;SDS011;67098;51.140;4.088;2023-02-28T06:44:42;15.57;;;7.60;;
32216;SDS011;67098;51.140;4.088;2023-02-28T06:47:08;15.10;;;8.27;;
32216;SDS011;67098;51.140;4.088;2023-02-28T06:49:34;15.05;;;7.50;;
32216;SDS011;67098;51.140;4.088;2023-02-28T06:52:01;18.83;;;8.02;;
32216;SDS011;67098;51.140;4.088;2023-02-28T06:54:27;18.73;;;8.68;;
32216;SDS011;67098;51.140;4.088;2023-02-28T06:56:53;16.50;;;9.13;;
32216;SDS011;67098;51.140;4.088;2023-02-28T06:59:19;18.05;;;9.00;;
32216;SDS011;67098;51.140;4.088;2023-02-28T07:01:45;19.00;;;9.30;;
32216;SDS011;67098;51.140;4.088;2023-02-28T07:04:10;21.20;;;8.65;;
32216;SDS011;67098;51.140;4.088;2023-02-28T07:06:38;15.68;;;7.80;;
32216;SDS011;67098;51.140;4.088;2023-02-28T07:09:04;17.25;;;7.85;;
32216;SDS011;67098;51.140;4.088;2023-02-28T07:11:30;20.52;;;8.07;;
32216;SDS011;67098;51.140;4.088;2023-02-28T07:13:56;19.92;;;7.10;;
32216;SDS011;67098;51.140;4.088;2023-02-28T07:16:23;13.95;;;7.13;;
32216;SDS011;67098;51.140;4.088;2023-02-28T07:18:51;15.77;;;6.97;;
32216;SDS011;67098;51.140;4.088;2023-02-28T07:21:17;20.77;;;8.30;;
32216;SDS011;67098;51.140;4.088;2023-02-28T07:23:43;18.67;;;7.35;;
32216;SDS011;67098;51.140;4.088;2023-02-28T07:26:11;18.85;;;8.25;;
32216;SDS011;67098;51.140;4.088;2023-02-28T07:28:40;19.30;;;9.02;;
32216;SDS011;67098;51.140;4.088;2023-02-28T07:31:07;23.67;;;8.25;;
32216;SDS011;67098;51.140;4.088;2023-02-28T07:33:33;23.23;;;9.48;;
32216;SDS011;67098;51.140;4.088;2023-02-28T07:36:09;18.38;;;8.30;;
32216;SDS011;67098;51.140;4.088;2023-02-28T07:41:06;15.20;;;7.53;;
32216;SDS011;67098;51.140;4.088;2023-02-28T07:43:33;14.02;;;7.20;;
32216;SDS011;67098;51.140;4.088;2023-02-28T07:46:06;19.33;;;8.15;;
32216;SDS011;67098;51.140;4.088;2023-02-28T07:48:37;18.00;;;7.57;;
32216;SDS011;67098;51.140;4.088;2023-02-28T07:51:03;19.38;;;7.88;;
32216;SDS011;67098;51.140;4.088;2023-02-28T07:53:28;14.32;;;6.93;;
32216;SDS011;67098;51.140;4.088;2023-02-28T07:55:55;14.82;;;7.20;;
32216;SDS011;67098;51.140;4.088;2023-02-28T07:58:22;31.33;;;7.35;;
32216;SDS011;67098;51.140;4.088;2023-02-28T08:00:49;14.05;;;7.03;;
32216;SDS011;67098;51.140;4.088;2023-02-28T08:03:14;14.43;;;7.10;;
32216;SDS011;67098;51.140;4.088;2023-02-28T08:05:41;14.98;;;6.93;;
32216;SDS011;67098;51.140;4.088;2023-02-28T08:08:07;11.88;;;6.40;;
32216;SDS011;67098;51.140;4.088;2023-02-28T08:10:33;13.63;;;6.25;;
32216;SDS011;67098;51.140;4.088;2023-02-28T08:12:59;11.73;;;5.75;;
32216;SDS011;67098;51.140;4.088;2023-02-28T08:15:25;15.20;;;6.13;;
32216;SDS011;67098;51.140;4.088;2023-02-28T08:17:50;13.48;;;6.40;;
32216;SDS011;67098;51.140;4.088;2023-02-28T08:20:16;9.95;;;5.90;;
32216;SDS011;67098;51.140;4.088;2023-02-28T08:22:42;10.45;;;5.95;;
32216;SDS011;67098;51.140;4.088;2023-02-28T08:25:07;13.90;;;5.47;;
32216;SDS011;67098;51.140;4.088;2023-02-28T08:27:33;12.95;;;5.22;;
32216;SDS011;67098;51.140;4.088;2023-02-28T08:29:59;10.43;;;5.28;;
32216;SDS011;67098;51.140;4.088;2023-02-28T08:32:25;11.77;;;5.05;;
32216;SDS011;67098;51.140;4.088;2023-02-28T08:34:51;13.98;;;5.40;;
32216;SDS011;67098;51.140;4.088;2023-02-28T08:37:16;13.98;;;5.68;;
32216;SDS011;67098;51.140;4.088;2023-02-28T08:39:42;10.30;;;4.63;;
32216;SDS011;67098;51.140;4.088;2023-02-28T08:42:08;17.42;;;5.45;;
32216;SDS011;67098;51.140;4.088;2023-02-28T08:44:33;14.63;;;4.93;;
32216;SDS011;67098;51.140;4.088;2023-02-28T08:46:59;12.68;;;4.25;;
32216;SDS011;67098;51.140;4.088;2023-02-28T08:49:25;7.95;;;4.10;;
32216;SDS011;67098;51.140;4.088;2023-02-28T08:51:50;8.25;;;3.90;;
32216;SDS011;67098;51.140;4.088;2023-02-28T08:54:16;9.63;;;4.10;;
32216;SDS011;67098;51.140;4.088;2023-02-28T08:56:44;8.38;;;4.03;;
32216;SDS011;67098;51.140;4.088;2023-02-28T08:59:14;12.07;;;4.05;;
32216;SDS011;67098;51.140;4.088;2023-02-28T09:01:39;10.05;;;4.75;;
32216;SDS011;67098;51.140;4.088;2023-02-28T09:04:06;7.75;;;4.13;;
32216;SDS011;67098;51.140;4.088;2023-02-28T09:06:34;11.75;;;4.50;;
32216;SDS011;67098;51.140;4.088;2023-02-28T09:09:00;10.23;;;3.67;;
32216;SDS011;67098;51.140;4.088;2023-02-28T09:11:26;11.40;;;4.22;;
32216;SDS011;67098;51.140;4.088;2023-02-28T09:13:52;6.85;;;3.75;;
32216;SDS011;67098;51.140;4.088;2023-02-28T09:16:18;9.63;;;4.55;;
32216;SDS011;67098;51.140;4.088;2023-02-28T09:18:44;10.50;;;3.83;;
32216;SDS011;67098;51.140;4.088;2023-02-28T09:21:11;9.38;;;4.55;;
32216;SDS011;67098;51.140;4.088;2023-02-28T09:23:39;9.02;;;2.97;;
32216;SDS011;67098;51.140;4.088;2023-02-28T09:26:06;7.18;;;3.38;;
32216;SDS011;67098;51.140;4.088;2023-02-28T09:28:32;13.10;;;3.88;;
32216;SDS011;67098;51.140;4.088;2023-02-28T09:30:57;8.88;;;3.47;;
32216;SDS011;67098;51.140;4.088;2023-02-28T09:33:24;9.43;;;2.50;;
32216;SDS011;67098;51.140;4.088;2023-02-28T09:35:50;7.03;;;2.20;;
32216;SDS011;67098;51.140;4.088;2023-02-28T09:38:22;9.07;;;2.30;;
32216;SDS011;67098;51.140;4.088;2023-02-28T09:40:52;3.60;;;1.90;;
32216;SDS011;67098;51.140;4.088;2023-02-28T09:43:20;5.72;;;2.30;;
32216;SDS011;67098;51.140;4.088;2023-02-28T09:45:52;6.82;;;2.00;;
32216;SDS011;67098;51.140;4.088;2023-02-28T09:48:28;3.90;;;1.80;;
32216;SDS011;67098;51.140;4.088;2023-02-28T09:53:57;3.05;;;1.60;;
32216;SDS011;67098;51.140;4.088;2023-02-28T09:56:24;4.45;;;2.50;;
32216;SDS011;67098;51.140;4.088;2023-02-28T09:59:11;3.10;;;1.85;;
32216;SDS011;67098;51.140;4.088;2023-02-28T10:04:47;5.47;;;2.10;;
32216;SDS011;67098;51.140;4.088;2023-02-28T10:09:57;4.97;;;2.53;;
32216;SDS011;67098;51.140;4.088;2023-02-28T10:12:27;5.93;;;2.80;;
32216;SDS011;67098;51.140;4.088;2023-02-28T10:14:55;5.90;;;2.63;;
32216;SDS011;67098;51.140;4.088;2023-02-28T10:17:25;8.15;;;2.92;;
32216;SDS011;67098;51.140;4.088;2023-02-28T10:20:01;4.45;;;2.65;;
32216;SDS011;67098;51.140;4.088;2023-02-28T10:25:26;5.70;;;2.88;;
32216;SDS011;67098;51.140;4.088;2023-02-28T10:27:54;6.72;;;2.80;;
32216;SDS011;67098;51.140;4.088;2023-02-28T10:30:26;4.95;;;2.30;;
32216;SDS011;67098;51.140;4.088;2023-02-28T10:32:52;4.32;;;2.53;;
32216;SDS011;67098;51.140;4.088;2023-02-28T10:35:20;6.13;;;2.58;;
32216;SDS011;67098;51.140;4.088;2023-02-28T10:37:49;6.28;;;3.08;;
32216;SDS011;67098;51.140;4.088;2023-02-28T10:45:31;5.50;;;2.40;;
32216;SDS011;67098;51.140;4.088;2023-02-28T10:55:58;6.57;;;2.10;;
32216;SDS011;67098;51.140;4.088;2023-02-28T10:58:42;6.32;;;1.65;;
32216;SDS011;67098;51.140;4.088;2023-02-28T11:01:14;3.53;;;1.75;;
32216;SDS011;67098;51.140;4.088;2023-02-28T11:03:58;7.88;;;2.95;;
32216;SDS011;67098;51.140;4.088;2023-02-28T11:09:15;4.10;;;2.08;;
32216;SDS011;67098;51.140;4.088;2023-02-28T11:11:45;8.65;;;2.10;;
32216;SDS011;67098;51.140;4.088;2023-02-28T11:14:24;5.72;;;1.80;;
32216;SDS011;67098;51.140;4.088;2023-02-28T11:16:52;4.95;;;2.17;;
32216;SDS011;67098;51.140;4.088;2023-02-28T11:19:39;6.10;;;2.03;;
32216;SDS011;67098;51.140;4.088;2023-02-28T11:22:09;5.95;;;2.20;;
32216;SDS011;67098;51.140;4.088;2023-02-28T11:24:42;5.50;;;1.45;;
32216;SDS011;67098;51.140;4.088;2023-02-28T11:29:55;4.22;;;1.92;;
32216;SDS011;67098;51.140;4.088;2023-02-28T11:32:25;4.53;;;1.65;;
32216;SDS011;67098;51.140;4.088;2023-02-28T11:37:34;4.00;;;1.70;;
32216;SDS011;67098;51.140;4.088;2023-02-28T11:40:01;3.15;;;1.67;;
32216;SDS011;67098;51.140;4.088;2023-02-28T11:42:37;5.47;;;1.40;;
32216;SDS011;67098;51.140;4.088;2023-02-28T11:51:00;4.50;;;1.70;;
32216;SDS011;67098;51.140;4.088;2023-02-28T11:56:55;2.30;;;1.45;;
32216;SDS011;67098;51.140;4.088;2023-02-28T11:59:37;5.20;;;2.15;;
32216;SDS011;67098;51.140;4.088;2023-02-28T12:26:38;5.47;;;1.58;;
32216;SDS011;67098;51.140;4.088;2023-02-28T12:34:25;2.55;;;1.40;;
32216;SDS011;67098;51.140;4.088;2023-02-28T12:36:56;5.20;;;2.00;;
32216;SDS011;67098;51.140;4.088;2023-02-28T12:39:26;2.05;;;1.65;;
32216;SDS011;67098;51.140;4.088;2023-02-28T12:42:04;2.55;;;1.58;;
32216;SDS011;67098;51.140;4.088;2023-02-28T12:44:37;2.65;;;1.60;;
32216;SDS011;67098;51.140;4.088;2023-02-28T12:47:10;5.97;;;2.00;;
32216;SDS011;67098;51.140;4.088;2023-02-28T12:52:16;2.83;;;1.73;;
32216;SDS011;67098;51.140;4.088;2023-02-28T12:57:36;4.10;;;1.88;;
32216;SDS011;67098;51.140;4.088;2023-02-28T13:05:49;15.27;;;1.98;;
32216;SDS011;67098;51.140;4.088;2023-02-28T13:08:39;4.05;;;2.15;;
32216;SDS011;67098;51.140;4.088;2023-02-28T13:14:19;4.55;;;1.70;;
32216;SDS011;67098;51.140;4.088;2023-02-28T13:16:56;3.17;;;1.73;;
32216;SDS011;67098;51.140;4.088;2023-02-28T13:19:28;3.20;;;1.63;;
32216;SDS011;67098;51.140;4.088;2023-02-28T13:21:57;5.22;;;2.38;;
32216;SDS011;67098;51.140;4.088;2023-02-28T13:29:42;5.55;;;1.60;;
32216;SDS011;67098;51.140;4.088;2023-02-28T13:34:36;3.28;;;1.70;;
32216;SDS011;67098;51.140;4.088;2023-02-28T13:42:23;3.17;;;1.77;;
32216;SDS011;67098;51.140;4.088;2023-02-28T13:47:42;2.92;;;1.83;;
32216;SDS011;67098;51.140;4.088;2023-02-28T13:50:15;7.18;;;2.17;;
32216;SDS011;67098;51.140;4.088;2023-02-28T14:07:23;4.60;;;2.35;;
32216;SDS011;67098;51.140;4.088;2023-02-28T14:10:01;2.47;;;2.13;;
32216;SDS011;67098;51.140;4.088;2023-02-28T14:17:55;2.58;;;2.10;;
32216;SDS011;67098;51.140;4.088;2023-02-28T14:20:24;4.13;;;1.90;;
32216;SDS011;67098;51.140;4.088;2023-02-28T14:23:42;4.03;;;2.63;;
32216;SDS011;67098;51.140;4.088;2023-02-28T14:31:29;3.05;;;2.33;;
32216;SDS011;67098;51.140;4.088;2023-02-28T14:36:31;2.97;;;2.20;;
32216;SDS011;67098;51.140;4.088;2023-02-28T14:39:07;6.18;;;2.45;;
32216;SDS011;67098;51.140;4.088;2023-02-28T14:41:41;3.78;;;2.42;;
32216;SDS011;67098;51.140;4.088;2023-02-28T14:46:43;4.05;;;2.58;;
32216;SDS011;67098;51.140;4.088;2023-02-28T14:49:15;8.15;;;3.08;;
32216;SDS011;67098;51.140;4.088;2023-02-28T14:51:41;4.50;;;2.67;;
32216;SDS011;67098;51.140;4.088;2023-02-28T14:54:12;4.93;;;2.20;;
32216;SDS011;67098;51.140;4.088;2023-02-28T14:56:40;3.28;;;2.25;;
32216;SDS011;67098;51.140;4.088;2023-02-28T14:59:21;4.45;;;2.88;;
32216;SDS011;67098;51.140;4.088;2023-02-28T15:02:12;3.95;;;2.35;;
32216;SDS011;67098;51.140;4.088;2023-02-28T15:04:39;4.70;;;2.90;;
32216;SDS011;67098;51.140;4.088;2023-02-28T15:07:08;7.13;;;2.88;;
32216;SDS011;67098;51.140;4.088;2023-02-28T15:09:42;4.68;;;2.83;;
32216;SDS011;67098;51.140;4.088;2023-02-28T15:12:09;4.82;;;2.75;;
32216;SDS011;67098;51.140;4.088;2023-02-28T15:14:40;3.95;;;2.70;;
32216;SDS011;67098;51.140;4.088;2023-02-28T15:17:09;6.85;;;2.65;;
32216;SDS011;67098;51.140;4.088;2023-02-28T15:19:50;4.78;;;2.95;;
32216;SDS011;67098;51.140;4.088;2023-02-28T15:22:19;4.55;;;2.70;;
32216;SDS011;67098;51.140;4.088;2023-02-28T15:24:54;6.78;;;2.78;;
32216;SDS011;67098;51.140;4.088;2023-02-28T15:29:54;7.38;;;3.15;;
32216;SDS011;67098;51.140;4.088;2023-02-28T15:32:27;5.90;;;2.70;;
32216;SDS011;67098;51.140;4.088;2023-02-28T15:35:46;7.22;;;3.00;;
32216;SDS011;67098;51.140;4.088;2023-02-28T15:38:50;5.45;;;2.92;;
32216;SDS011;67098;51.140;4.088;2023-02-28T15:40:57;4.15;;;2.50;;
32216;SDS011;67098;51.140;4.088;2023-02-28T15:43:33;9.38;;;2.90;;
32216;SDS011;67098;51.140;4.088;2023-02-28T15:46:02;8.32;;;2.95;;
32216;SDS011;67098;51.140;4.088;2023-02-28T15:51:07;5.75;;;2.80;;
32216;SDS011;67098;51.140;4.088;2023-02-28T15:53:39;6.35;;;2.92;;
32216;SDS011;67098;51.140;4.088;2023-02-28T15:56:33;8.18;;;3.20;;
32216;SDS011;67098;51.140;4.088;2023-02-28T15:59:13;5.63;;;2.80;;
32216;SDS011;67098;51.140;4.088;2023-02-28T16:01:42;8.93;;;3.22;;
32216;SDS011;67098;51.140;4.088;2023-02-28T16:04:15;3.10;;;2.55;;
32216;SDS011;67098;51.140;4.088;2023-02-28T16:06:43;5.70;;;2.80;;
32216;SDS011;67098;51.140;4.088;2023-02-28T16:09:13;4.75;;;2.80;;
32216;SDS011;67098;51.140;4.088;2023-02-28T16:11:49;7.15;;;2.80;;
32216;SDS011;67098;51.140;4.088;2023-02-28T16:14:21;5.63;;;3.13;;
32216;SDS011;67098;51.140;4.088;2023-02-28T16:16:50;8.93;;;2.95;;
32216;SDS011;67098;51.140;4.088;2023-02-28T16:19:18;4.90;;;2.67;;
32216;SDS011;67098;51.140;4.088;2023-02-28T16:21:44;7.60;;;3.30;;
32216;SDS011;67098;51.140;4.088;2023-02-28T16:24:10;5.63;;;3.20;;
32216;SDS011;67098;51.140;4.088;2023-02-28T16:26:36;7.85;;;3.30;;
32216;SDS011;67098;51.140;4.088;2023-02-28T16:29:04;6.93;;;3.30;;
32216;SDS011;67098;51.140;4.088;2023-02-28T16:31:32;5.72;;;3.53;;
32216;SDS011;67098;51.140;4.088;2023-02-28T16:34:02;7.90;;;3.53;;
32216;SDS011;67098;51.140;4.088;2023-02-28T16:36:28;5.60;;;3.95;;
32216;SDS011;67098;51.140;4.088;2023-02-28T16:38:54;4.68;;;3.45;;
32216;SDS011;67098;51.140;4.088;2023-02-28T16:41:22;4.63;;;3.22;;
32216;SDS011;67098;51.140;4.088;2023-02-28T16:43:51;5.05;;;3.20;;
32216;SDS011;67098;51.140;4.088;2023-02-28T16:46:18;4.97;;;2.97;;
32216;SDS011;67098;51.140;4.088;2023-02-28T16:48:45;5.47;;;3.25;;
32216;SDS011;67098;51.140;4.088;2023-02-28T16:51:12;4.65;;;3.08;;
32216;SDS011;67098;51.140;4.088;2023-02-28T16:53:40;4.85;;;3.00;;
32216;SDS011;67098;51.140;4.088;2023-02-28T16:56:06;7.30;;;2.92;;
32216;SDS011;67098;51.140;4.088;2023-02-28T16:58:38;7.53;;;2.65;;
32216;SDS011;67098;51.140;4.088;2023-02-28T17:01:04;6.47;;;3.17;;
32216;SDS011;67098;51.140;4.088;2023-02-28T17:03:29;23.50;;;10.88;;
32216;SDS011;67098;51.140;4.088;2023-02-28T17:05:55;14.70;;;10.18;;
32216;SDS011;67098;51.140;4.088;2023-02-28T17:08:21;13.20;;;8.98;;
32216;SDS011;67098;51.140;4.088;2023-02-28T17:10:47;10.00;;;5.50;;
32216;SDS011;67098;51.140;4.088;2023-02-28T17:13:12;6.55;;;3.55;;
32216;SDS011;67098;51.140;4.088;2023-02-28T17:15:38;9.00;;;4.80;;
32216;SDS011;67098;51.140;4.088;2023-02-28T17:18:05;6.90;;;3.60;;
32216;SDS011;67098;51.140;4.088;2023-02-28T17:20:31;9.25;;;3.75;;
32216;SDS011;67098;51.140;4.088;2023-02-28T17:22:57;8.20;;;4.22;;
32216;SDS011;67098;51.140;4.088;2023-02-28T17:25:23;5.97;;;3.50;;
32216;SDS011;67098;51.140;4.088;2023-02-28T17:27:49;9.52;;;3.78;;
32216;SDS011;67098;51.140;4.088;2023-02-28T17:30:23;10.27;;;5.93;;
32216;SDS011;67098;51.140;4.088;2023-02-28T17:32:52;9.60;;;4.35;;
32216;SDS011;67098;51.140;4.088;2023-02-28T17:35:18;12.10;;;5.32;;
32216;SDS011;67098;51.140;4.088;2023-02-28T17:37:44;9.13;;;4.35;;
32216;SDS011;67098;51.140;4.088;2023-02-28T17:40:14;8.15;;;4.55;;
32216;SDS011;67098;51.140;4.088;2023-02-28T17:42:44;8.88;;;4.50;;
32216;SDS011;67098;51.140;4.088;2023-02-28T17:45:11;9.43;;;4.95;;
32216;SDS011;67098;51.140;4.088;2023-02-28T17:47:38;10.98;;;4.88;;
32216;SDS011;67098;51.140;4.088;2023-02-28T17:50:04;12.85;;;5.53;;
32216;SDS011;67098;51.140;4.088;2023-02-28T17:52:31;8.32;;;4.97;;
32216;SDS011;67098;51.140;4.088;2023-02-28T17:55:01;11.77;;;5.18;;
32216;SDS011;67098;51.140;4.088;2023-02-28T17:57:28;9.18;;;5.05;;